createdAt,value
2022-08-19T00:02:00.462Z,29.22
2022-08-19T00:04:35.995Z,29.17
2022-08-19T00:07:05.785Z,29.16
2022-08-19T00:09:34.430Z,29.12
2022-08-19T00:12:04.110Z,29.09
2022-08-19T00:14:33.333Z,29.06
2022-08-19T00:17:02.315Z,29.01
2022-08-19T00:19:32.507Z,28.94
2022-08-19T00:22:01.241Z,28.92
2022-08-19T00:24:29.728Z,28.87
2022-08-19T00:27:25.118Z,28.83
2022-08-19T00:29:47.123Z,28.77
2022-08-19T00:32:21.371Z,28.72
2022-08-19T00:34:52.951Z,28.67
2022-08-19T00:37:24.086Z,28.64
2022-08-19T00:39:53.192Z,28.60
2022-08-19T00:42:24.774Z,28.57
2022-08-19T00:44:53.192Z,28.52
2022-08-19T00:47:22.581Z,28.49
2022-08-19T00:49:56.227Z,28.44
2022-08-19T00:52:31.052Z,28.40
2022-08-19T00:55:00.778Z,28.37
2022-08-19T00:57:34.920Z,28.34
2022-08-19T01:00:07.075Z,28.32
2022-08-19T01:02:35.818Z,28.31
2022-08-19T01:05:12.561Z,28.28
2022-08-19T01:07:42.391Z,28.28
2022-08-19T01:10:14.593Z,28.26
2022-08-19T01:12:43.935Z,28.26
2022-08-19T01:15:17.524Z,28.24
2022-08-19T01:17:47.257Z,28.22
2022-08-19T01:20:26.122Z,28.19
2022-08-19T01:22:59.351Z,28.18
2022-08-19T01:25:37.318Z,28.16
2022-08-19T01:28:10.555Z,28.17
2022-08-19T01:30:39.740Z,28.15
2022-08-19T01:33:13.301Z,28.15
2022-08-19T01:35:45.638Z,28.14
2022-08-19T01:38:26.256Z,28.13
2022-08-19T01:40:56.203Z,28.15
2022-08-19T01:43:24.654Z,28.16
2022-08-19T01:45:53.779Z,28.16
2022-08-19T01:48:22.952Z,28.17
2022-08-19T01:50:51.456Z,28.17
2022-08-19T01:53:21.266Z,28.15
2022-08-19T01:55:52.290Z,28.17
2022-08-19T01:58:26.565Z,28.16
2022-08-19T02:00:55.526Z,28.17
2022-08-19T02:03:24.014Z,28.17
2022-08-19T02:05:58.998Z,28.15
2022-08-19T02:08:29.502Z,28.16
2022-08-19T02:10:58.619Z,28.16
2022-08-19T02:13:30.160Z,28.13
2022-08-19T02:15:58.771Z,28.16
2022-08-19T02:18:28.775Z,28.15
2022-08-19T02:20:57.417Z,28.16
2022-08-19T02:23:25.865Z,28.14
2022-08-19T02:25:55.682Z,28.14
2022-08-19T02:28:24.080Z,28.15
2022-08-19T02:30:52.950Z,28.17
2022-08-19T02:33:21.418Z,28.20
2022-08-19T02:35:49.902Z,28.22
2022-08-19T02:38:26.536Z,28.24
2022-08-19T02:41:00.054Z,28.23
2022-08-19T02:43:33.828Z,28.26
2022-08-19T02:46:04.418Z,28.27
2022-08-19T02:48:33.937Z,28.27
2022-08-19T02:51:02.673Z,28.27
2022-08-19T02:53:31.654Z,28.27
2022-08-19T02:56:01.438Z,28.26
2022-08-19T02:58:29.928Z,28.28
2022-08-19T03:00:59.567Z,28.27
2022-08-19T03:03:28.256Z,28.28
2022-08-19T03:06:08.573Z,28.26
2022-08-19T03:08:37.973Z,28.28
2022-08-19T03:11:08.200Z,28.28
2022-08-19T03:13:36.926Z,28.29
2022-08-19T03:16:07.660Z,28.29
2022-08-19T03:18:36.059Z,28.32
2022-08-19T03:21:05.176Z,28.32
2022-08-19T03:23:34.102Z,28.33
2022-08-19T03:26:16.646Z,28.33
2022-08-19T03:28:51.742Z,28.34
2022-08-19T03:31:43.700Z,28.34
2022-08-19T03:34:22.381Z,28.34
2022-08-19T03:36:50.942Z,28.33
2022-08-19T03:39:19.488Z,28.38
2022-08-19T03:42:31.954Z,28.36
2022-08-19T03:44:40.737Z,28.34
2022-08-19T03:47:09.212Z,28.31
2022-08-19T03:49:37.807Z,28.28
2022-08-19T03:52:08.573Z,28.28
2022-08-19T03:54:39.130Z,28.24
2022-08-19T03:57:10.214Z,28.21
2022-08-19T03:59:40.576Z,28.19
2022-08-19T04:02:13.754Z,28.17
2022-08-19T04:04:45.458Z,28.15
2022-08-19T04:07:17.279Z,28.14
2022-08-19T04:09:45.905Z,28.12
2022-08-19T04:12:17.039Z,28.10
2022-08-19T04:14:45.533Z,28.09
2022-08-19T04:17:14.011Z,28.09
2022-08-19T04:19:44.019Z,28.09
2022-08-19T04:22:13.626Z,28.12
2022-08-19T04:24:42.016Z,28.14
2022-08-19T04:27:10.426Z,28.17
2022-08-19T04:29:41.473Z,28.21
2022-08-19T04:32:10.172Z,28.25
2022-08-19T04:35:02.482Z,28.30
2022-08-19T04:37:35.430Z,28.36
2022-08-19T04:40:25.334Z,28.39
2022-08-19T04:42:54.638Z,28.45
2022-08-19T04:45:24.886Z,28.48
2022-08-19T04:48:19.674Z,28.53
2022-08-19T04:50:46.889Z,28.60
2022-08-19T04:53:15.364Z,28.63
2022-08-19T04:55:44.890Z,28.67
2022-08-19T04:58:13.368Z,28.71
2022-08-19T05:00:43.573Z,28.73
2022-08-19T05:03:12.281Z,28.80
2022-08-19T05:05:44.980Z,28.82
2022-08-19T05:08:15.401Z,28.86
2022-08-19T05:10:45.585Z,28.90
2022-08-19T05:13:14.015Z,28.94
2022-08-19T05:15:54.963Z,28.98
2022-08-19T05:18:46.057Z,29.01
2022-08-19T05:21:35.764Z,29.05
2022-08-19T05:24:07.390Z,29.09
2022-08-19T05:26:35.931Z,29.13
2022-08-19T05:29:05.403Z,29.18
2022-08-19T05:31:36.396Z,29.20
2022-08-19T05:34:20.268Z,29.22
2022-08-19T05:36:49.211Z,29.22
2022-08-19T05:39:20.937Z,29.19
2022-08-19T05:41:53.724Z,29.18
2022-08-19T05:44:24.297Z,29.19
2022-08-19T05:46:55.411Z,29.21
2022-08-19T05:49:26.469Z,29.20
2022-08-19T05:51:56.382Z,29.22
2022-08-19T05:54:25.651Z,29.20
2022-08-19T05:56:55.663Z,29.17
2022-08-19T05:59:24.831Z,29.19
2022-08-19T06:01:57.433Z,29.17
2022-08-19T06:04:26.404Z,29.18
2022-08-19T06:06:56.052Z,29.21
2022-08-19T06:09:25.242Z,29.22
2022-08-19T06:12:00.902Z,29.23
2022-08-19T06:14:33.420Z,29.28
2022-08-19T06:17:07.051Z,29.36
2022-08-19T06:19:40.639Z,29.43
2022-08-19T06:22:10.855Z,29.49
2022-08-19T06:24:39.299Z,29.57
2022-08-19T06:27:07.761Z,29.63
2022-08-19T06:29:36.926Z,29.70
2022-08-19T06:32:07.854Z,29.73
2022-08-19T06:34:37.370Z,29.76
2022-08-19T06:37:06.841Z,29.80
2022-08-19T06:39:39.239Z,29.87
2022-08-19T06:42:10.986Z,29.99
2022-08-19T06:44:43.209Z,30.13
2022-08-19T06:47:23.416Z,30.27
2022-08-19T06:50:01.421Z,30.46
2022-08-19T06:52:34.218Z,30.60
2022-08-19T06:55:06.145Z,30.74
2022-08-19T06:57:35.766Z,30.84
2022-08-19T07:00:12.244Z,30.92
2022-08-19T07:02:48.064Z,31.04
2022-08-19T07:05:22.176Z,31.16
2022-08-19T07:07:51.006Z,31.27
2022-08-19T07:10:20.607Z,31.37
2022-08-19T07:12:51.162Z,31.46
2022-08-19T07:15:21.986Z,31.52
2022-08-19T07:17:52.866Z,31.54
2022-08-19T07:20:21.894Z,31.58
2022-08-19T07:22:57.941Z,31.66
2022-08-19T07:25:32.064Z,31.77
2022-08-19T07:28:01.823Z,31.90
2022-08-19T07:30:30.822Z,32.00
2022-08-19T07:33:03.408Z,32.09
2022-08-19T07:35:33.217Z,32.15
2022-08-19T07:38:04.886Z,32.19
2022-08-19T07:40:33.818Z,32.25
2022-08-19T07:43:02.336Z,32.33
2022-08-19T07:45:33.265Z,32.40
2022-08-19T07:48:03.830Z,32.54
2022-08-19T07:50:32.660Z,32.71
2022-08-19T07:53:01.556Z,32.85
2022-08-19T07:55:40.077Z,32.95
2022-08-19T07:58:13.382Z,33.07
2022-08-19T08:00:42.877Z,33.23
2022-08-19T08:03:13.611Z,33.42
2022-08-19T08:06:00.205Z,33.59
2022-08-19T08:08:48.160Z,33.74
2022-08-19T08:11:19.977Z,33.78
2022-08-19T08:14:01.168Z,33.84
2022-08-19T08:16:35.560Z,33.96
2022-08-19T08:19:25.535Z,34.14
2022-08-19T08:21:55.885Z,34.31
2022-08-19T08:24:28.668Z,34.46
2022-08-19T08:26:58.529Z,34.62
2022-08-19T08:29:35.068Z,34.75
2022-08-19T08:32:13.946Z,34.82
2022-08-19T08:34:44.280Z,34.94
2022-08-19T08:37:13.090Z,35.04
2022-08-19T08:39:44.895Z,35.16
2022-08-19T08:42:23.107Z,35.27
2022-08-19T08:45:00.466Z,35.39
2022-08-19T08:47:37.408Z,35.51
2022-08-19T08:50:21.188Z,35.65
2022-08-19T08:52:54.075Z,35.80
2022-08-19T08:59:36.740Z,36.06
2022-08-19T09:02:05.787Z,36.13
2022-08-19T09:04:36.218Z,36.16
2022-08-19T09:07:35.884Z,36.17
2022-08-19T09:10:17.662Z,36.25
2022-08-19T09:13:09.501Z,36.23
2022-08-19T09:15:45.613Z,36.29
2022-08-19T09:18:19.090Z,36.35
2022-08-19T09:20:49.127Z,36.35
2022-08-19T09:23:19.224Z,36.36
2022-08-19T09:25:55.878Z,36.41
2022-08-19T09:28:27.114Z,36.44
2022-08-19T09:30:55.878Z,36.41
2022-08-19T09:33:24.588Z,36.43
2022-08-19T09:36:04.391Z,36.49
2022-08-19T09:38:43.611Z,36.57
2022-08-19T09:41:15.701Z,36.68
2022-08-19T09:43:47.895Z,36.80
2022-08-19T09:46:19.102Z,36.85
2022-08-19T09:48:49.454Z,36.86
2022-08-19T09:51:21.424Z,36.86
2022-08-19T09:53:54.950Z,36.88
2022-08-19T09:56:25.236Z,36.95
2022-08-19T09:58:54.238Z,36.96
2022-08-19T10:01:26.087Z,36.87
2022-08-19T10:03:57.837Z,36.93
2022-08-19T10:06:43.914Z,37.02
2022-08-19T10:09:18.651Z,37.08
2022-08-19T10:12:03.660Z,37.17
2022-08-19T10:14:32.446Z,37.30
2022-08-19T10:17:01.432Z,37.41
2022-08-19T10:19:55.241Z,37.48
2022-08-19T10:22:25.747Z,37.50
2022-08-19T10:24:56.234Z,37.48
2022-08-19T10:27:26.413Z,37.47
2022-08-19T10:29:55.248Z,37.42
2022-08-19T10:32:33.976Z,37.39
2022-08-19T10:35:06.060Z,37.29
2022-08-19T10:37:35.255Z,37.18
2022-08-19T10:40:08.081Z,36.99
2022-08-19T10:42:37.399Z,36.87
2022-08-19T10:45:08.027Z,36.71
2022-08-19T10:47:36.721Z,36.60
2022-08-19T10:50:28.777Z,36.48
2022-08-19T10:52:58.583Z,36.32
2022-08-19T10:55:45.724Z,36.10
2022-08-19T10:58:16.309Z,35.82
2022-08-19T11:00:52.867Z,35.60
2022-08-19T11:03:21.630Z,35.37
2022-08-19T11:06:02.056Z,35.12
2022-08-19T11:08:31.937Z,35.05
2022-08-19T11:11:04.341Z,34.99
2022-08-19T11:13:37.065Z,34.91
2022-08-19T11:16:10.344Z,34.75
2022-08-19T11:18:41.425Z,34.59
2022-08-19T11:21:14.824Z,34.47
2022-08-19T11:23:44.377Z,34.43
2022-08-19T11:26:15.154Z,34.42
2022-08-19T11:28:43.826Z,34.44
2022-08-19T11:31:13.947Z,34.51
2022-08-19T11:33:47.610Z,34.62
2022-08-19T11:36:17.513Z,34.85
2022-08-19T11:38:47.075Z,35.26
2022-08-19T11:41:19.954Z,35.71
2022-08-19T11:43:49.264Z,36.12
2022-08-19T11:46:19.377Z,36.47
2022-08-19T11:48:49.167Z,36.70
2022-08-19T11:51:21.106Z,36.77
2022-08-19T11:53:50.684Z,36.90
2022-08-19T11:56:21.668Z,37.37
2022-08-19T11:58:50.550Z,38.06
2022-08-19T12:01:21.969Z,38.73
2022-08-19T12:03:53.690Z,39.37
2022-08-19T12:06:29.439Z,39.93
2022-08-19T12:08:59.557Z,40.18
2022-08-19T12:11:34.684Z,40.13
2022-08-19T12:14:03.578Z,39.92
2022-08-19T12:16:33.907Z,39.66
2022-08-19T12:19:05.365Z,39.35
2022-08-19T12:21:36.871Z,39.04
2022-08-19T12:24:08.575Z,38.92
2022-08-19T12:26:52.424Z,38.96
2022-08-19T12:29:23.968Z,39.53
2022-08-19T12:31:53.038Z,40.14
2022-08-19T12:34:21.941Z,40.48
2022-08-19T12:36:51.256Z,40.56
2022-08-19T12:39:19.916Z,40.42
2022-08-19T12:41:54.241Z,40.09
2022-08-19T12:44:28.963Z,39.71
2022-08-19T12:46:58.607Z,39.33
2022-08-19T12:49:52.219Z,38.92
2022-08-19T12:52:16.822Z,38.46
2022-08-19T12:54:54.491Z,38.06
2022-08-19T12:57:31.880Z,37.68
2022-08-19T13:00:05.270Z,37.34
2022-08-19T13:02:38.812Z,37.06
2022-08-19T13:05:11.520Z,36.81
2022-08-19T13:07:40.652Z,36.61
2022-08-19T13:10:13.389Z,36.39
2022-08-19T13:12:43.591Z,36.21
2022-08-19T13:15:15.111Z,36.05
2022-08-19T13:17:44.221Z,35.87
2022-08-19T13:20:13.891Z,35.71
2022-08-19T13:22:43.379Z,35.57
2022-08-19T13:25:12.857Z,35.44
2022-08-19T13:27:42.978Z,35.30
2022-08-19T13:30:32.580Z,35.17
2022-08-19T13:33:13.122Z,35.05
2022-08-19T13:35:48.779Z,34.96
2022-08-19T13:38:21.491Z,34.88
2022-08-19T13:40:53.563Z,34.80
2022-08-19T13:43:27.563Z,34.75
2022-08-19T13:45:57.816Z,34.65
2022-08-19T13:48:28.343Z,34.49
2022-08-19T13:50:57.582Z,34.30
2022-08-19T13:53:26.311Z,34.12
2022-08-19T13:55:55.439Z,34.03
2022-08-19T13:58:25.338Z,34.01
2022-08-19T14:00:53.873Z,34.04
2022-08-19T14:03:22.405Z,34.07
2022-08-19T14:05:50.828Z,34.11
2022-08-19T14:08:20.311Z,34.18
2022-08-19T14:10:49.560Z,34.27
2022-08-19T14:13:22.015Z,34.38
2022-08-19T14:15:53.086Z,34.59
2022-08-19T14:18:21.656Z,34.85
2022-08-19T14:20:50.145Z,35.16
2022-08-19T14:23:18.611Z,35.55
2022-08-19T14:25:47.509Z,36.02
2022-08-19T14:28:15.985Z,36.41
2022-08-19T14:30:45.642Z,36.62
2022-08-19T14:33:16.385Z,36.93
2022-08-19T14:35:46.089Z,37.30
2022-08-19T14:38:28.113Z,37.59
2022-08-19T14:41:13.139Z,37.65
2022-08-19T14:43:42.676Z,37.60
2022-08-19T14:46:13.674Z,37.47
2022-08-19T14:48:47.038Z,37.29
2022-08-19T14:51:22.167Z,37.10
2022-08-19T14:53:52.301Z,36.94
2022-08-19T14:56:26.040Z,36.79
2022-08-19T14:58:56.030Z,36.77
2022-08-19T15:01:25.608Z,36.74
2022-08-19T15:03:56.178Z,36.68
2022-08-19T15:06:26.359Z,36.60
2022-08-19T15:08:55.486Z,36.53
2022-08-19T15:11:28.793Z,36.47
2022-08-19T15:13:58.220Z,36.44
2022-08-19T15:16:29.061Z,36.41
2022-08-19T15:19:01.089Z,36.35
2022-08-19T15:21:31.460Z,36.31
2022-08-19T15:24:01.846Z,36.25
2022-08-19T15:26:33.507Z,36.23
2022-08-19T15:29:03.816Z,36.19
2022-08-19T15:31:38.084Z,36.09
2022-08-19T15:34:08.728Z,36.01
2022-08-19T15:36:38.443Z,35.89
2022-08-19T15:39:10.218Z,35.79
2022-08-19T15:41:39.722Z,35.67
2022-08-19T15:44:13.998Z,35.56
2022-08-19T15:46:46.154Z,35.46
2022-08-19T15:49:18.916Z,35.43
2022-08-19T15:51:51.575Z,35.41
2022-08-19T15:54:22.832Z,35.38
2022-08-19T15:57:09.878Z,35.35
2022-08-19T16:00:00.750Z,35.26
2022-08-19T16:02:49.406Z,35.23
2022-08-19T16:05:45.349Z,35.24
2022-08-19T16:08:13.924Z,35.30
2022-08-19T16:10:42.390Z,35.30
2022-08-19T16:13:11.485Z,35.28
2022-08-19T16:15:40.107Z,35.23
2022-08-19T16:18:08.529Z,35.13
2022-08-19T16:20:38.325Z,34.98
2022-08-19T16:23:07.033Z,34.83
2022-08-19T16:25:36.459Z,34.70
2022-08-19T16:28:07.231Z,34.59
2022-08-19T16:30:39.654Z,34.48
2022-08-19T16:33:09.095Z,34.40
2022-08-19T16:35:39.914Z,34.32
2022-08-19T16:38:08.420Z,34.25
2022-08-19T16:40:37.239Z,34.14
2022-08-19T16:43:06.485Z,34.06
2022-08-19T16:45:34.932Z,33.96
2022-08-19T16:48:03.971Z,33.90
2022-08-19T16:50:48.638Z,33.83
2022-08-19T16:53:21.892Z,33.75
2022-08-19T16:55:53.339Z,33.72
2022-08-19T16:58:28.530Z,33.67
2022-08-19T17:01:03.274Z,33.61
2022-08-19T17:03:36.297Z,33.53
2022-08-19T17:06:15.863Z,33.45
2022-08-19T17:08:50.860Z,33.39
2022-08-19T17:11:21.299Z,33.35
2022-08-19T17:13:51.345Z,33.28
2022-08-19T17:16:24.701Z,33.21
2022-08-19T17:18:53.491Z,33.13
2022-08-19T17:21:27.797Z,33.03
2022-08-19T17:23:58.730Z,32.96
2022-08-19T17:26:30.108Z,32.88
2022-08-19T17:29:00.642Z,32.80
2022-08-19T17:31:31.824Z,32.73
2022-08-19T17:34:01.166Z,32.69
2022-08-19T17:36:34.689Z,32.60
2022-08-19T17:39:06.179Z,32.52
2022-08-19T17:41:35.345Z,32.45
2022-08-19T17:44:06.096Z,32.36
2022-08-19T17:46:34.982Z,32.29
2022-08-19T17:49:03.770Z,32.22
2022-08-19T17:51:45.801Z,32.10
2022-08-19T17:54:19.837Z,32.05
2022-08-19T17:56:48.657Z,32.00
2022-08-19T17:59:17.515Z,31.93
2022-08-19T18:01:53.226Z,31.85
2022-08-19T18:04:25.040Z,31.80
2022-08-19T18:06:55.291Z,31.76
2022-08-19T18:09:27.515Z,31.68
2022-08-19T18:12:01.781Z,31.65
2022-08-19T18:14:35.815Z,31.59
2022-08-19T18:17:09.723Z,31.58
2022-08-19T18:19:42.226Z,31.56
2022-08-19T18:22:14.039Z,31.54
2022-08-19T18:24:45.986Z,31.52
2022-08-19T18:27:14.960Z,31.51
2022-08-19T18:29:43.499Z,31.50
2022-08-19T18:32:13.762Z,31.48
2022-08-19T18:34:43.426Z,31.46
2022-08-19T18:37:12.391Z,31.44
2022-08-19T18:39:58.385Z,31.41
2022-08-19T18:42:45.481Z,31.35
2022-08-19T18:45:31.478Z,31.32
2022-08-19T18:48:27.368Z,31.28
2022-08-19T18:50:58.822Z,31.21
2022-08-19T18:53:29.215Z,31.19
2022-08-19T18:55:58.119Z,31.18
2022-08-19T18:58:34.129Z,31.18
2022-08-19T19:01:11.197Z,31.19
2022-08-19T19:03:42.998Z,31.22
2022-08-19T19:06:11.482Z,31.24
2022-08-19T19:08:41.029Z,31.27
2022-08-19T19:11:10.086Z,31.21
2022-08-19T19:13:41.534Z,31.05
2022-08-19T19:16:11.718Z,30.87
2022-08-19T19:18:40.602Z,30.65
2022-08-19T19:21:10.566Z,30.44
2022-08-19T19:23:42.482Z,30.23
2022-08-19T19:26:13.107Z,30.03
2022-08-19T19:28:47.539Z,29.86
2022-08-19T19:31:23.829Z,29.72
2022-08-19T19:33:52.305Z,29.67
2022-08-19T19:36:21.010Z,29.62
2022-08-19T19:38:49.757Z,29.62
2022-08-19T19:41:24.292Z,29.62
2022-08-19T19:44:23.249Z,29.66
2022-08-19T19:46:45.309Z,29.71
2022-08-19T19:49:15.847Z,29.73
2022-08-19T19:51:44.574Z,29.76
2022-08-19T19:54:14.826Z,29.81
2022-08-19T19:56:45.586Z,29.83
2022-08-19T19:59:15.391Z,29.84
2022-08-19T20:01:46.899Z,29.79
2022-08-19T20:04:17.108Z,29.63
2022-08-19T20:06:46.186Z,29.48
2022-08-19T20:09:19.497Z,29.30
2022-08-19T20:11:53.468Z,29.09
2022-08-19T20:14:27.123Z,28.88
2022-08-19T20:16:57.423Z,28.70
2022-08-19T20:19:31.257Z,28.50
2022-08-19T20:21:59.661Z,28.31
2022-08-19T20:24:33.733Z,28.10
2022-08-19T20:27:03.156Z,27.90
2022-08-19T20:29:39.208Z,27.72
2022-08-19T20:32:09.383Z,27.60
2022-08-19T20:34:38.206Z,27.49
2022-08-19T20:37:09.402Z,27.41
2022-08-19T20:39:39.088Z,27.35
2022-08-19T20:42:07.989Z,27.29
2022-08-19T20:44:38.298Z,27.26
2022-08-19T20:47:07.323Z,27.25
2022-08-19T20:49:36.327Z,27.23
2022-08-19T20:52:07.027Z,27.21
2022-08-19T20:54:35.716Z,27.21
2022-08-19T20:57:05.517Z,27.23
2022-08-19T20:59:34.449Z,27.24
2022-08-19T21:02:04.458Z,27.26
2022-08-19T21:04:33.142Z,27.28
2022-08-19T21:07:02.181Z,27.26
2022-08-19T21:09:30.676Z,27.26
2022-08-19T21:11:59.083Z,27.27
2022-08-19T21:14:27.469Z,27.29
2022-08-19T21:16:55.867Z,27.31
2022-08-19T21:19:25.875Z,27.35
2022-08-19T21:21:54.288Z,27.38
2022-08-19T21:24:26.257Z,27.39
2022-08-19T21:26:57.367Z,27.40
2022-08-19T21:29:25.787Z,27.36
2022-08-19T21:31:54.251Z,27.31
2022-08-19T21:34:23.995Z,27.23
2022-08-19T21:36:52.525Z,27.14
2022-08-19T21:39:20.933Z,27.06
2022-08-19T21:41:49.363Z,26.97
2022-08-19T21:44:17.773Z,26.90
2022-08-19T21:46:46.210Z,26.82
2022-08-19T21:49:19.664Z,26.78
2022-08-19T21:51:49.890Z,26.72
2022-08-19T21:54:18.322Z,26.67
2022-08-19T21:56:47.450Z,26.65
2022-08-19T21:59:16.949Z,26.62
2022-08-19T22:01:50.487Z,26.60
2022-08-19T22:04:22.667Z,26.57
2022-08-19T22:06:52.470Z,26.56
2022-08-19T22:09:20.776Z,26.56
2022-08-19T22:11:49.574Z,26.56
2022-08-19T22:14:17.986Z,26.55
2022-08-19T22:16:47.371Z,26.54
2022-08-19T22:19:15.854Z,26.53
2022-08-19T22:21:44.231Z,26.53
2022-08-19T22:24:14.159Z,26.51
2022-08-19T22:26:42.548Z,26.52
2022-08-19T22:29:11.530Z,26.52
2022-08-19T22:31:44.212Z,26.48
2022-08-19T22:34:12.761Z,26.49
2022-08-19T22:36:41.394Z,26.46
2022-08-19T22:39:09.904Z,26.42
2022-08-19T22:41:40.833Z,26.39
2022-08-19T22:44:11.530Z,26.37
2022-08-19T22:46:39.983Z,26.35
2022-08-19T22:49:08.516Z,26.33
2022-08-19T22:51:54.601Z,26.33
2022-08-19T22:54:23.007Z,26.32
2022-08-19T22:56:52.811Z,26.30
2022-08-19T22:59:21.296Z,26.29
2022-08-19T23:01:49.650Z,26.28
2022-08-19T23:04:18.105Z,26.28
2022-08-19T23:06:46.539Z,26.28
2022-08-19T23:09:16.570Z,26.28
2022-08-19T23:11:45.904Z,26.31
2022-08-19T23:14:17.703Z,26.34
2022-08-19T23:16:50.956Z,26.37
2022-08-19T23:19:21.112Z,26.41
2022-08-19T23:21:50.017Z,26.43
2022-08-19T23:24:18.439Z,26.46
2022-08-19T23:27:00.892Z,26.52
2022-08-19T23:29:48.634Z,26.56
2022-08-19T23:32:18.383Z,26.61
2022-08-19T23:34:47.574Z,26.65
2022-08-19T23:37:16.331Z,26.67
2022-08-19T23:39:45.291Z,26.70
2022-08-19T23:42:13.862Z,26.72
2022-08-19T23:44:51.223Z,26.74
2022-08-19T23:47:21.968Z,26.77
2022-08-19T23:49:51.235Z,26.78
2022-08-19T23:52:20.180Z,26.79
2022-08-19T23:54:48.632Z,26.79
2022-08-19T23:57:17.173Z,26.77
2022-08-19T23:59:46.936Z,26.76
